Etusivu
METAR-TAF:

METAR-TAF

Lentoasemat :

Örebron lentoasema

Örebro, Ruotsi

Leveyspiiri: 59-14N, Pituuspiiri: 015-03E, korkeus merenpinnasta: 57 m

Tämänhetkinen sää

Tämä raportti tehtiin 31 minuuttia sitten, kello 04.50 UTC
Tuuli 20 kn lounaasta
Lämpötila 10°C
Kosteus 100%
Ilmanpaine 1010 hPa
Näkyvyys 10 km tai enemmän
Muutamia pilviä 1600 ft:n korkeudessa
Hajonneita pilviä 2100 ft:n korkeudessa
heikkoa sadetta

METAR: ESOE 260450Z 23020KT 9999 -RA FEW016 BKN021 10/10 Q1010

Aika: 07:21 (05:21 UTC)

Sääennuste

Tämä raportti tehtiin 2 tuntia ja 51 minuuttia sitten, kello 02.30 UTC
Ennuste voimassa 26. päivästä klo 03 UTC - 26. päivään klo 12 UTC
Tuuli 20 kn lounaasta puuskistuen 35 kn:hen
Näkyvyys 10 km tai enemmän
Hajanaisia pilviä 2500 ft:n korkeudessa
Todennäköisyys 40%
26. päivästä klo 05 UTC - 26. päivään klo 09 UTC
Hajonneita pilviä 1200 ft:n korkeudessa
sadetta

TAF: ESOE 260230Z 2603/2612 23020G35KT 9999 SCT025 PROB40 2605/2609 RA BKN012

Säähavainnot ja -ennusteet yli 4000 lentoasemalta (METAR- ja TAF-raportit).

Käytössä olevat sääasemat on merkitty karttaan keltaisilla ja punaisilla pisteillä.

Aseta hiiri pisteen päälle nähdäksesi sääaseman nimen.

Klikkaa sitten nähdäksesi säähavainnot ja -ennusteet.

Kartan vaihtaminen: klikkaa mustalla rastilla varustettuja vihreitä pisteitä, niin voit zoomata sisään; viivalla varustettua vihreää pistettä, niin voit zoomata ulos tai vihreitä nuolia, niin pääset viereisille kartoille.


METAR-TAF: